Terminal Aerodrome Forecast
Issued by NWS

Home | Current Version | Previous Version | Text Only | Print | Product List | Glossary On
Versions: 1 2 3 4 5 6 7 8 9 10 11 12 13 14 15 16 17 18 19
000
FTUS43 KDLH 181000 AAA
TAFHYR
TAF AMD
KHYR 181042Z 1811/1906 36007KT P6SM OVC025
     FM181700 36006KT P6SM BKN035
     FM182000 VRB03KT P6SM SKC=

USA.gov is the U.S. government's official web portal to all federal, state and local government web resources and services.